sensor_id;sensor_type;location;lat;lon;timestamp;P1;durP1;ratioP1;P2;durP2;ratioP2
5085;SDS011;4715;51.660;7.082;2023-12-20T00:00:46;23.63;;;15.20;;
5085;SDS011;4715;51.660;7.082;2023-12-20T00:03:08;24.73;;;15.03;;
5085;SDS011;4715;51.660;7.082;2023-12-20T00:05:30;20.03;;;13.17;;
5085;SDS011;4715;51.660;7.082;2023-12-20T00:07:56;17.93;;;12.10;;
5085;SDS011;4715;51.660;7.082;2023-12-20T00:10:18;22.07;;;13.40;;
5085;SDS011;4715;51.660;7.082;2023-12-20T00:12:42;18.70;;;11.50;;
5085;SDS011;4715;51.660;7.082;2023-12-20T00:15:04;18.13;;;11.10;;
5085;SDS011;4715;51.660;7.082;2023-12-20T00:17:29;14.57;;;9.57;;
5085;SDS011;4715;51.660;7.082;2023-12-20T00:19:55;20.73;;;10.30;;
5085;SDS011;4715;51.660;7.082;2023-12-20T00:22:19;14.60;;;9.60;;
5085;SDS011;4715;51.660;7.082;2023-12-20T00:24:43;14.40;;;9.30;;
5085;SDS011;4715;51.660;7.082;2023-12-20T00:27:05;14.60;;;9.93;;
5085;SDS011;4715;51.660;7.082;2023-12-20T00:29:27;13.43;;;9.57;;
5085;SDS011;4715;51.660;7.082;2023-12-20T00:31:50;17.90;;;8.53;;
5085;SDS011;4715;51.660;7.082;2023-12-20T00:34:13;14.30;;;8.80;;
5085;SDS011;4715;51.660;7.082;2023-12-20T00:36:38;12.83;;;8.80;;
5085;SDS011;4715;51.660;7.082;2023-12-20T00:39:00;13.50;;;8.30;;
5085;SDS011;4715;51.660;7.082;2023-12-20T00:41:23;9.60;;;7.47;;
5085;SDS011;4715;51.660;7.082;2023-12-20T00:43:45;9.27;;;6.10;;
5085;SDS011;4715;51.660;7.082;2023-12-20T00:46:08;12.50;;;7.33;;
5085;SDS011;4715;51.660;7.082;2023-12-20T00:48:32;12.70;;;7.10;;
5085;SDS011;4715;51.660;7.082;2023-12-20T00:50:54;10.90;;;7.70;;
5085;SDS011;4715;51.660;7.082;2023-12-20T00:53:17;16.23;;;6.27;;
5085;SDS011;4715;51.660;7.082;2023-12-20T00:55:39;7.70;;;5.70;;
5085;SDS011;4715;51.660;7.082;2023-12-20T00:58:04;10.13;;;6.87;;
5085;SDS011;4715;51.660;7.082;2023-12-20T01:00:26;12.20;;;6.23;;
5085;SDS011;4715;51.660;7.082;2023-12-20T01:02:48;9.10;;;6.80;;
5085;SDS011;4715;51.660;7.082;2023-12-20T01:05:11;7.53;;;5.40;;
5085;SDS011;4715;51.660;7.082;2023-12-20T01:07:36;10.07;;;6.20;;
5085;SDS011;4715;51.660;7.082;2023-12-20T01:09:58;6.37;;;5.33;;
5085;SDS011;4715;51.660;7.082;2023-12-20T01:12:23;8.10;;;4.93;;
5085;SDS011;4715;51.660;7.082;2023-12-20T01:14:48;8.70;;;5.90;;
5085;SDS011;4715;51.660;7.082;2023-12-20T01:17:12;9.83;;;6.17;;
5085;SDS011;4715;51.660;7.082;2023-12-20T01:19:34;10.00;;;6.40;;
5085;SDS011;4715;51.660;7.082;2023-12-20T01:21:56;9.20;;;5.77;;
5085;SDS011;4715;51.660;7.082;2023-12-20T01:24:18;9.97;;;5.93;;
5085;SDS011;4715;51.660;7.082;2023-12-20T01:26:40;13.47;;;6.07;;
5085;SDS011;4715;51.660;7.082;2023-12-20T01:29:02;14.60;;;6.00;;
5085;SDS011;4715;51.660;7.082;2023-12-20T01:31:29;7.37;;;5.37;;
5085;SDS011;4715;51.660;7.082;2023-12-20T01:33:51;11.63;;;5.70;;
5085;SDS011;4715;51.660;7.082;2023-12-20T01:36:13;16.93;;;5.50;;
5085;SDS011;4715;51.660;7.082;2023-12-20T01:38:38;8.33;;;5.23;;
5085;SDS011;4715;51.660;7.082;2023-12-20T01:41:00;10.17;;;6.33;;
5085;SDS011;4715;51.660;7.082;2023-12-20T01:43:22;10.90;;;6.23;;
5085;SDS011;4715;51.660;7.082;2023-12-20T01:45:45;10.53;;;5.57;;
5085;SDS011;4715;51.660;7.082;2023-12-20T01:48:14;7.77;;;4.97;;
5085;SDS011;4715;51.660;7.082;2023-12-20T01:50:37;11.67;;;5.60;;
5085;SDS011;4715;51.660;7.082;2023-12-20T01:53:00;9.10;;;5.73;;
5085;SDS011;4715;51.660;7.082;2023-12-20T01:55:27;14.77;;;6.70;;
5085;SDS011;4715;51.660;7.082;2023-12-20T01:57:55;10.80;;;5.30;;
5085;SDS011;4715;51.660;7.082;2023-12-20T02:00:19;8.73;;;6.03;;
5085;SDS011;4715;51.660;7.082;2023-12-20T02:02:46;14.70;;;5.70;;
5085;SDS011;4715;51.660;7.082;2023-12-20T02:05:12;14.43;;;7.10;;
5085;SDS011;4715;51.660;7.082;2023-12-20T02:07:35;8.57;;;6.40;;
5085;SDS011;4715;51.660;7.082;2023-12-20T02:09:57;15.23;;;5.90;;
5085;SDS011;4715;51.660;7.082;2023-12-20T02:12:20;12.20;;;5.17;;
5085;SDS011;4715;51.660;7.082;2023-12-20T02:14:44;10.10;;;5.53;;
5085;SDS011;4715;51.660;7.082;2023-12-20T02:17:06;10.60;;;5.83;;
5085;SDS011;4715;51.660;7.082;2023-12-20T02:19:28;14.33;;;5.20;;
5085;SDS011;4715;51.660;7.082;2023-12-20T02:22:06;9.23;;;5.70;;
5085;SDS011;4715;51.660;7.082;2023-12-20T02:24:32;10.67;;;5.30;;
5085;SDS011;4715;51.660;7.082;2023-12-20T02:26:54;5.83;;;4.67;;
5085;SDS011;4715;51.660;7.082;2023-12-20T02:29:17;16.60;;;5.83;;
5085;SDS011;4715;51.660;7.082;2023-12-20T02:31:41;11.23;;;5.77;;
5085;SDS011;4715;51.660;7.082;2023-12-20T02:34:03;9.23;;;6.07;;
5085;SDS011;4715;51.660;7.082;2023-12-20T02:36:25;10.47;;;6.90;;
5085;SDS011;4715;51.660;7.082;2023-12-20T02:38:48;12.87;;;6.70;;
5085;SDS011;4715;51.660;7.082;2023-12-20T02:41:14;14.63;;;6.60;;
5085;SDS011;4715;51.660;7.082;2023-12-20T02:43:38;13.37;;;5.00;;
5085;SDS011;4715;51.660;7.082;2023-12-20T02:46:05;10.27;;;5.37;;
5085;SDS011;4715;51.660;7.082;2023-12-20T02:48:30;13.07;;;5.67;;
5085;SDS011;4715;51.660;7.082;2023-12-20T02:50:52;13.57;;;6.00;;
5085;SDS011;4715;51.660;7.082;2023-12-20T02:53:14;17.43;;;7.27;;
5085;SDS011;4715;51.660;7.082;2023-12-20T02:55:38;20.93;;;6.10;;
5085;SDS011;4715;51.660;7.082;2023-12-20T02:58:02;17.63;;;7.77;;
5085;SDS011;4715;51.660;7.082;2023-12-20T03:00:25;13.57;;;5.73;;
5085;SDS011;4715;51.660;7.082;2023-12-20T03:02:48;21.83;;;5.60;;
5085;SDS011;4715;51.660;7.082;2023-12-20T03:05:08;14.90;;;5.53;;
5085;SDS011;4715;51.660;7.082;2023-12-20T03:07:30;13.07;;;6.03;;
5085;SDS011;4715;51.660;7.082;2023-12-20T03:09:54;8.20;;;6.50;;
5085;SDS011;4715;51.660;7.082;2023-12-20T03:12:19;13.57;;;6.90;;
5085;SDS011;4715;51.660;7.082;2023-12-20T03:14:41;19.27;;;6.90;;
5085;SDS011;4715;51.660;7.082;2023-12-20T03:17:05;13.83;;;7.47;;
5085;SDS011;4715;51.660;7.082;2023-12-20T03:19:28;16.73;;;7.77;;
5085;SDS011;4715;51.660;7.082;2023-12-20T03:21:50;13.13;;;6.60;;
5085;SDS011;4715;51.660;7.082;2023-12-20T03:24:14;16.03;;;7.00;;
5085;SDS011;4715;51.660;7.082;2023-12-20T03:26:36;11.40;;;6.97;;
5085;SDS011;4715;51.660;7.082;2023-12-20T03:29:00;10.40;;;6.03;;
5085;SDS011;4715;51.660;7.082;2023-12-20T03:31:23;11.63;;;6.23;;
5085;SDS011;4715;51.660;7.082;2023-12-20T03:33:45;15.83;;;6.30;;
5085;SDS011;4715;51.660;7.082;2023-12-20T03:36:09;22.30;;;6.50;;
5085;SDS011;4715;51.660;7.082;2023-12-20T03:38:31;13.70;;;7.30;;
5085;SDS011;4715;51.660;7.082;2023-12-20T03:40:52;23.70;;;7.43;;
5085;SDS011;4715;51.660;7.082;2023-12-20T03:43:14;20.70;;;6.13;;
5085;SDS011;4715;51.660;7.082;2023-12-20T03:45:37;14.97;;;6.37;;
5085;SDS011;4715;51.660;7.082;2023-12-20T03:47:59;8.80;;;5.13;;
5085;SDS011;4715;51.660;7.082;2023-12-20T03:50:22;16.00;;;6.90;;
5085;SDS011;4715;51.660;7.082;2023-12-20T03:52:44;32.53;;;7.20;;
5085;SDS011;4715;51.660;7.082;2023-12-20T03:55:09;14.97;;;7.30;;
5085;SDS011;4715;51.660;7.082;2023-12-20T03:57:31;20.13;;;7.50;;
5085;SDS011;4715;51.660;7.082;2023-12-20T03:59:53;14.60;;;6.77;;
5085;SDS011;4715;51.660;7.082;2023-12-20T04:02:17;15.60;;;7.63;;
5085;SDS011;4715;51.660;7.082;2023-12-20T04:04:40;18.77;;;7.33;;
5085;SDS011;4715;51.660;7.082;2023-12-20T04:07:03;13.40;;;6.57;;
5085;SDS011;4715;51.660;7.082;2023-12-20T04:09:26;9.83;;;6.10;;
5085;SDS011;4715;51.660;7.082;2023-12-20T04:11:50;15.53;;;7.50;;
5085;SDS011;4715;51.660;7.082;2023-12-20T04:14:12;20.07;;;6.17;;
5085;SDS011;4715;51.660;7.082;2023-12-20T04:16:34;13.40;;;6.00;;
5085;SDS011;4715;51.660;7.082;2023-12-20T04:18:58;9.13;;;4.50;;
5085;SDS011;4715;51.660;7.082;2023-12-20T04:21:21;13.23;;;6.23;;
5085;SDS011;4715;51.660;7.082;2023-12-20T04:23:48;18.13;;;5.80;;
5085;SDS011;4715;51.660;7.082;2023-12-20T04:26:11;13.20;;;6.10;;
5085;SDS011;4715;51.660;7.082;2023-12-20T04:28:37;11.97;;;5.67;;
5085;SDS011;4715;51.660;7.082;2023-12-20T04:30:59;15.00;;;4.50;;
5085;SDS011;4715;51.660;7.082;2023-12-20T04:33:23;11.10;;;5.33;;
5085;SDS011;4715;51.660;7.082;2023-12-20T04:35:49;12.43;;;5.17;;
5085;SDS011;4715;51.660;7.082;2023-12-20T04:38:11;13.47;;;5.13;;
5085;SDS011;4715;51.660;7.082;2023-12-20T04:40:33;20.57;;;5.73;;
5085;SDS011;4715;51.660;7.082;2023-12-20T04:42:56;15.20;;;5.20;;
5085;SDS011;4715;51.660;7.082;2023-12-20T04:45:18;14.77;;;5.63;;
5085;SDS011;4715;51.660;7.082;2023-12-20T04:47:40;13.83;;;5.20;;
5085;SDS011;4715;51.660;7.082;2023-12-20T04:50:03;14.83;;;5.73;;
5085;SDS011;4715;51.660;7.082;2023-12-20T04:52:28;8.03;;;4.23;;
5085;SDS011;4715;51.660;7.082;2023-12-20T04:55:04;14.90;;;5.13;;
5085;SDS011;4715;51.660;7.082;2023-12-20T04:57:26;21.97;;;4.83;;
5085;SDS011;4715;51.660;7.082;2023-12-20T04:59:48;20.70;;;5.63;;
5085;SDS011;4715;51.660;7.082;2023-12-20T05:02:12;21.43;;;4.17;;
5085;SDS011;4715;51.660;7.082;2023-12-20T05:04:35;6.70;;;4.30;;
5085;SDS011;4715;51.660;7.082;2023-12-20T05:06:58;7.50;;;4.50;;
5085;SDS011;4715;51.660;7.082;2023-12-20T05:09:26;12.63;;;4.20;;
5085;SDS011;4715;51.660;7.082;2023-12-20T05:11:49;10.50;;;5.47;;
5085;SDS011;4715;51.660;7.082;2023-12-20T05:14:11;15.30;;;5.03;;
5085;SDS011;4715;51.660;7.082;2023-12-20T05:16:33;14.67;;;4.47;;
5085;SDS011;4715;51.660;7.082;2023-12-20T05:18:54;16.70;;;4.73;;
5085;SDS011;4715;51.660;7.082;2023-12-20T05:21:16;17.87;;;4.20;;
5085;SDS011;4715;51.660;7.082;2023-12-20T05:23:38;8.73;;;4.10;;
5085;SDS011;4715;51.660;7.082;2023-12-20T05:26:02;12.20;;;3.90;;
5085;SDS011;4715;51.660;7.082;2023-12-20T05:28:24;9.17;;;4.20;;
5085;SDS011;4715;51.660;7.082;2023-12-20T05:30:46;13.43;;;5.60;;
5085;SDS011;4715;51.660;7.082;2023-12-20T05:33:11;18.40;;;7.50;;
5085;SDS011;4715;51.660;7.082;2023-12-20T05:35:34;19.63;;;5.00;;
5085;SDS011;4715;51.660;7.082;2023-12-20T05:37:56;18.43;;;5.73;;
5085;SDS011;4715;51.660;7.082;2023-12-20T05:40:18;31.37;;;5.00;;
5085;SDS011;4715;51.660;7.082;2023-12-20T05:42:42;10.43;;;4.83;;
5085;SDS011;4715;51.660;7.082;2023-12-20T05:45:05;9.40;;;4.47;;
5085;SDS011;4715;51.660;7.082;2023-12-20T05:47:30;22.80;;;5.63;;
5085;SDS011;4715;51.660;7.082;2023-12-20T05:49:57;14.50;;;4.70;;
5085;SDS011;4715;51.660;7.082;2023-12-20T05:52:20;11.63;;;4.47;;
5085;SDS011;4715;51.660;7.082;2023-12-20T05:54:46;18.70;;;5.00;;
5085;SDS011;4715;51.660;7.082;2023-12-20T05:57:17;8.27;;;3.83;;
5085;SDS011;4715;51.660;7.082;2023-12-20T05:59:40;12.80;;;4.43;;
5085;SDS011;4715;51.660;7.082;2023-12-20T06:02:03;7.33;;;5.30;;
5085;SDS011;4715;51.660;7.082;2023-12-20T06:04:26;18.90;;;5.27;;
5085;SDS011;4715;51.660;7.082;2023-12-20T06:06:49;17.23;;;5.57;;
5085;SDS011;4715;51.660;7.082;2023-12-20T06:09:11;13.33;;;5.53;;
5085;SDS011;4715;51.660;7.082;2023-12-20T06:11:38;12.10;;;5.63;;
5085;SDS011;4715;51.660;7.082;2023-12-20T06:14:02;9.30;;;4.10;;
5085;SDS011;4715;51.660;7.082;2023-12-20T06:16:26;12.00;;;4.80;;
5085;SDS011;4715;51.660;7.082;2023-12-20T06:18:50;13.20;;;4.83;;
5085;SDS011;4715;51.660;7.082;2023-12-20T06:21:12;14.13;;;5.33;;
5085;SDS011;4715;51.660;7.082;2023-12-20T06:23:34;13.97;;;4.80;;
5085;SDS011;4715;51.660;7.082;2023-12-20T06:25:57;18.40;;;5.50;;
5085;SDS011;4715;51.660;7.082;2023-12-20T06:28:22;16.20;;;6.03;;
5085;SDS011;4715;51.660;7.082;2023-12-20T06:30:44;8.67;;;5.10;;
5085;SDS011;4715;51.660;7.082;2023-12-20T06:33:10;15.73;;;5.80;;
5085;SDS011;4715;51.660;7.082;2023-12-20T06:35:34;17.40;;;4.97;;
5085;SDS011;4715;51.660;7.082;2023-12-20T06:37:57;15.27;;;5.40;;
5085;SDS011;4715;51.660;7.082;2023-12-20T06:40:22;17.37;;;5.50;;
5085;SDS011;4715;51.660;7.082;2023-12-20T06:42:45;13.77;;;6.80;;
5085;SDS011;4715;51.660;7.082;2023-12-20T06:45:10;15.67;;;6.57;;
5085;SDS011;4715;51.660;7.082;2023-12-20T06:47:32;14.70;;;6.10;;
5085;SDS011;4715;51.660;7.082;2023-12-20T06:49:58;17.60;;;7.20;;
5085;SDS011;4715;51.660;7.082;2023-12-20T06:52:20;14.00;;;6.60;;
5085;SDS011;4715;51.660;7.082;2023-12-20T06:54:44;18.37;;;7.10;;
5085;SDS011;4715;51.660;7.082;2023-12-20T06:57:10;15.07;;;6.80;;
5085;SDS011;4715;51.660;7.082;2023-12-20T06:59:37;14.80;;;7.13;;
5085;SDS011;4715;51.660;7.082;2023-12-20T07:02:05;14.37;;;5.87;;
5085;SDS011;4715;51.660;7.082;2023-12-20T07:04:27;18.73;;;6.13;;
5085;SDS011;4715;51.660;7.082;2023-12-20T07:06:51;19.60;;;6.43;;
5085;SDS011;4715;51.660;7.082;2023-12-20T07:09:16;14.27;;;6.30;;
5085;SDS011;4715;51.660;7.082;2023-12-20T07:11:38;24.20;;;7.90;;
5085;SDS011;4715;51.660;7.082;2023-12-20T07:14:01;12.77;;;5.47;;
5085;SDS011;4715;51.660;7.082;2023-12-20T07:16:23;21.10;;;6.63;;
5085;SDS011;4715;51.660;7.082;2023-12-20T07:18:45;17.70;;;6.90;;
5085;SDS011;4715;51.660;7.082;2023-12-20T07:21:07;11.43;;;5.97;;
5085;SDS011;4715;51.660;7.082;2023-12-20T07:23:31;14.00;;;6.20;;
5085;SDS011;4715;51.660;7.082;2023-12-20T07:25:53;16.03;;;7.43;;
5085;SDS011;4715;51.660;7.082;2023-12-20T07:28:15;18.33;;;6.20;;
5085;SDS011;4715;51.660;7.082;2023-12-20T07:30:37;11.97;;;5.40;;
5085;SDS011;4715;51.660;7.082;2023-12-20T07:32:58;16.43;;;6.10;;
5085;SDS011;4715;51.660;7.082;2023-12-20T07:35:21;16.50;;;6.17;;
5085;SDS011;4715;51.660;7.082;2023-12-20T07:37:43;13.33;;;7.20;;
5085;SDS011;4715;51.660;7.082;2023-12-20T07:40:07;13.47;;;6.90;;
5085;SDS011;4715;51.660;7.082;2023-12-20T07:42:30;27.63;;;6.30;;
5085;SDS011;4715;51.660;7.082;2023-12-20T07:44:51;15.20;;;5.93;;
5085;SDS011;4715;51.660;7.082;2023-12-20T07:47:13;11.47;;;5.83;;
5085;SDS011;4715;51.660;7.082;2023-12-20T07:49:39;19.53;;;5.30;;
5085;SDS011;4715;51.660;7.082;2023-12-20T07:52:01;17.23;;;6.70;;
5085;SDS011;4715;51.660;7.082;2023-12-20T07:54:23;18.03;;;5.67;;
5085;SDS011;4715;51.660;7.082;2023-12-20T07:56:46;13.63;;;5.50;;
5085;SDS011;4715;51.660;7.082;2023-12-20T07:59:10;15.47;;;5.20;;
5085;SDS011;4715;51.660;7.082;2023-12-20T08:01:32;28.30;;;6.20;;
5085;SDS011;4715;51.660;7.082;2023-12-20T08:03:56;12.60;;;6.17;;
5085;SDS011;4715;51.660;7.082;2023-12-20T08:06:18;11.07;;;5.37;;
5085;SDS011;4715;51.660;7.082;2023-12-20T08:08:40;19.57;;;5.80;;
5085;SDS011;4715;51.660;7.082;2023-12-20T08:11:02;16.00;;;5.33;;
5085;SDS011;4715;51.660;7.082;2023-12-20T08:13:26;19.03;;;6.27;;
5085;SDS011;4715;51.660;7.082;2023-12-20T08:15:48;17.53;;;5.83;;
5085;SDS011;4715;51.660;7.082;2023-12-20T08:18:14;13.37;;;4.03;;
5085;SDS011;4715;51.660;7.082;2023-12-20T08:20:37;8.53;;;5.00;;
5085;SDS011;4715;51.660;7.082;2023-12-20T08:23:00;16.20;;;5.20;;
5085;SDS011;4715;51.660;7.082;2023-12-20T08:25:22;9.17;;;6.13;;
5085;SDS011;4715;51.660;7.082;2023-12-20T08:27:46;9.93;;;4.40;;
5085;SDS011;4715;51.660;7.082;2023-12-20T08:30:09;13.80;;;4.53;;
5085;SDS011;4715;51.660;7.082;2023-12-20T08:32:33;12.80;;;5.20;;
5085;SDS011;4715;51.660;7.082;2023-12-20T08:34:56;13.60;;;4.70;;
5085;SDS011;4715;51.660;7.082;2023-12-20T08:37:18;13.77;;;4.33;;
5085;SDS011;4715;51.660;7.082;2023-12-20T08:39:41;13.70;;;4.80;;
5085;SDS011;4715;51.660;7.082;2023-12-20T08:42:05;9.13;;;4.60;;
5085;SDS011;4715;51.660;7.082;2023-12-20T08:44:27;15.47;;;5.37;;
5085;SDS011;4715;51.660;7.082;2023-12-20T08:46:50;17.17;;;4.97;;
5085;SDS011;4715;51.660;7.082;2023-12-20T08:49:13;26.77;;;6.77;;
5085;SDS011;4715;51.660;7.082;2023-12-20T08:51:35;18.87;;;5.20;;
5085;SDS011;4715;51.660;7.082;2023-12-20T08:54:00;13.63;;;4.70;;
5085;SDS011;4715;51.660;7.082;2023-12-20T08:56:22;17.27;;;4.73;;
5085;SDS011;4715;51.660;7.082;2023-12-20T08:58:44;21.43;;;5.50;;
5085;SDS011;4715;51.660;7.082;2023-12-20T09:01:06;11.80;;;5.20;;
5085;SDS011;4715;51.660;7.082;2023-12-20T09:03:30;18.50;;;4.80;;
5085;SDS011;4715;51.660;7.082;2023-12-20T09:05:52;19.00;;;5.77;;
5085;SDS011;4715;51.660;7.082;2023-12-20T09:08:14;7.87;;;4.03;;
5085;SDS011;4715;51.660;7.082;2023-12-20T09:10:36;14.33;;;3.80;;
5085;SDS011;4715;51.660;7.082;2023-12-20T09:12:59;13.13;;;4.07;;
5085;SDS011;4715;51.660;7.082;2023-12-20T09:15:20;7.17;;;3.73;;
5085;SDS011;4715;51.660;7.082;2023-12-20T09:17:43;17.53;;;5.13;;
5085;SDS011;4715;51.660;7.082;2023-12-20T09:20:06;10.63;;;4.67;;
5085;SDS011;4715;51.660;7.082;2023-12-20T09:22:29;33.23;;;6.60;;
5085;SDS011;4715;51.660;7.082;2023-12-20T09:24:51;7.77;;;4.20;;
5085;SDS011;4715;51.660;7.082;2023-12-20T09:27:13;9.40;;;4.50;;
5085;SDS011;4715;51.660;7.082;2023-12-20T09:29:35;13.07;;;5.47;;
5085;SDS011;4715;51.660;7.082;2023-12-20T09:31:56;9.33;;;4.63;;
5085;SDS011;4715;51.660;7.082;2023-12-20T09:34:18;15.93;;;4.30;;
5085;SDS011;4715;51.660;7.082;2023-12-20T09:36:42;22.97;;;6.90;;
5085;SDS011;4715;51.660;7.082;2023-12-20T09:39:06;11.30;;;4.57;;
5085;SDS011;4715;51.660;7.082;2023-12-20T09:41:29;9.70;;;3.80;;
5085;SDS011;4715;51.660;7.082;2023-12-20T09:43:58;18.47;;;5.90;;
5085;SDS011;4715;51.660;7.082;2023-12-20T09:46:24;12.13;;;5.03;;
5085;SDS011;4715;51.660;7.082;2023-12-20T09:48:52;20.47;;;4.90;;
5085;SDS011;4715;51.660;7.082;2023-12-20T09:51:15;12.10;;;4.20;;
5085;SDS011;4715;51.660;7.082;2023-12-20T09:53:42;21.57;;;5.20;;
5085;SDS011;4715;51.660;7.082;2023-12-20T09:56:05;15.33;;;4.83;;
5085;SDS011;4715;51.660;7.082;2023-12-20T09:58:29;11.83;;;5.20;;
5085;SDS011;4715;51.660;7.082;2023-12-20T10:00:51;14.10;;;4.90;;
5085;SDS011;4715;51.660;7.082;2023-12-20T10:03:15;10.13;;;4.43;;
5085;SDS011;4715;51.660;7.082;2023-12-20T10:05:39;12.33;;;5.37;;
5085;SDS011;4715;51.660;7.082;2023-12-20T10:08:06;8.17;;;4.10;;
5085;SDS011;4715;51.660;7.082;2023-12-20T10:10:29;8.20;;;4.83;;
5085;SDS011;4715;51.660;7.082;2023-12-20T10:13:00;13.17;;;4.57;;
5085;SDS011;4715;51.660;7.082;2023-12-20T10:15:25;15.37;;;5.83;;
5085;SDS011;4715;51.660;7.082;2023-12-20T10:17:49;16.47;;;5.20;;
5085;SDS011;4715;51.660;7.082;2023-12-20T10:20:12;13.00;;;4.70;;
5085;SDS011;4715;51.660;7.082;2023-12-20T10:22:34;20.70;;;4.60;;
5085;SDS011;4715;51.660;7.082;2023-12-20T10:24:57;16.33;;;5.10;;
5085;SDS011;4715;51.660;7.082;2023-12-20T10:27:21;11.30;;;4.40;;
5085;SDS011;4715;51.660;7.082;2023-12-20T10:29:45;13.43;;;5.30;;
5085;SDS011;4715;51.660;7.082;2023-12-20T10:34:53;11.60;;;4.60;;
5085;SDS011;4715;51.660;7.082;2023-12-20T10:37:16;13.87;;;4.70;;
5085;SDS011;4715;51.660;7.082;2023-12-20T10:39:38;13.83;;;5.23;;
5085;SDS011;4715;51.660;7.082;2023-12-20T10:42:02;13.93;;;4.23;;
5085;SDS011;4715;51.660;7.082;2023-12-20T10:44:28;11.20;;;4.20;;
5085;SDS011;4715;51.660;7.082;2023-12-20T10:46:49;14.10;;;4.77;;
5085;SDS011;4715;51.660;7.082;2023-12-20T10:49:17;9.63;;;4.63;;
5085;SDS011;4715;51.660;7.082;2023-12-20T10:51:40;10.17;;;5.00;;
5085;SDS011;4715;51.660;7.082;2023-12-20T10:54:02;11.43;;;4.00;;
5085;SDS011;4715;51.660;7.082;2023-12-20T10:56:24;15.20;;;4.60;;
5085;SDS011;4715;51.660;7.082;2023-12-20T10:58:51;12.03;;;5.07;;
5085;SDS011;4715;51.660;7.082;2023-12-20T11:01:17;12.70;;;4.43;;
5085;SDS011;4715;51.660;7.082;2023-12-20T11:03:42;8.33;;;4.57;;
5085;SDS011;4715;51.660;7.082;2023-12-20T11:06:08;7.53;;;4.13;;
5085;SDS011;4715;51.660;7.082;2023-12-20T11:08:39;8.80;;;4.43;;
5085;SDS011;4715;51.660;7.082;2023-12-20T11:11:13;17.53;;;4.50;;
5085;SDS011;4715;51.660;7.082;2023-12-20T11:13:43;22.63;;;5.37;;
5085;SDS011;4715;51.660;7.082;2023-12-20T11:16:16;13.23;;;4.30;;
5085;SDS011;4715;51.660;7.082;2023-12-20T11:18:39;10.20;;;5.13;;
5085;SDS011;4715;51.660;7.082;2023-12-20T11:21:02;26.30;;;5.00;;
5085;SDS011;4715;51.660;7.082;2023-12-20T11:23:26;11.43;;;4.47;;
5085;SDS011;4715;51.660;7.082;2023-12-20T11:25:48;19.30;;;4.70;;
5085;SDS011;4715;51.660;7.082;2023-12-20T11:28:13;10.20;;;4.40;;
5085;SDS011;4715;51.660;7.082;2023-12-20T11:30:41;11.73;;;4.50;;
5085;SDS011;4715;51.660;7.082;2023-12-20T11:33:05;14.83;;;4.60;;
5085;SDS011;4715;51.660;7.082;2023-12-20T11:35:29;11.17;;;5.17;;
5085;SDS011;4715;51.660;7.082;2023-12-20T11:37:51;22.10;;;4.93;;
5085;SDS011;4715;51.660;7.082;2023-12-20T11:40:14;18.03;;;5.53;;
5085;SDS011;4715;51.660;7.082;2023-12-20T11:42:37;13.53;;;4.00;;
5085;SDS011;4715;51.660;7.082;2023-12-20T11:45:01;9.93;;;5.27;;
5085;SDS011;4715;51.660;7.082;2023-12-20T11:47:24;14.20;;;5.57;;
5085;SDS011;4715;51.660;7.082;2023-12-20T11:49:49;10.13;;;4.10;;
5085;SDS011;4715;51.660;7.082;2023-12-20T11:52:12;17.93;;;5.47;;
5085;SDS011;4715;51.660;7.082;2023-12-20T11:54:34;11.43;;;4.70;;
5085;SDS011;4715;51.660;7.082;2023-12-20T11:56:56;10.40;;;5.30;;
5085;SDS011;4715;51.660;7.082;2023-12-20T11:59:18;15.37;;;5.17;;
5085;SDS011;4715;51.660;7.082;2023-12-20T12:01:40;14.07;;;4.60;;
5085;SDS011;4715;51.660;7.082;2023-12-20T12:04:11;12.37;;;4.90;;
5085;SDS011;4715;51.660;7.082;2023-12-20T12:06:34;12.30;;;4.87;;
5085;SDS011;4715;51.660;7.082;2023-12-20T12:08:56;18.77;;;4.67;;
5085;SDS011;4715;51.660;7.082;2023-12-20T12:11:18;12.87;;;4.13;;
5085;SDS011;4715;51.660;7.082;2023-12-20T12:13:40;16.70;;;5.07;;
5085;SDS011;4715;51.660;7.082;2023-12-20T12:16:02;17.40;;;4.87;;
5085;SDS011;4715;51.660;7.082;2023-12-20T12:18:25;15.83;;;4.50;;
5085;SDS011;4715;51.660;7.082;2023-12-20T12:20:49;8.97;;;5.10;;
5085;SDS011;4715;51.660;7.082;2023-12-20T12:23:12;14.00;;;5.23;;
5085;SDS011;4715;51.660;7.082;2023-12-20T12:25:35;11.73;;;4.43;;
5085;SDS011;4715;51.660;7.082;2023-12-20T12:27:57;9.87;;;5.00;;
5085;SDS011;4715;51.660;7.082;2023-12-20T12:30:20;17.40;;;7.00;;
5085;SDS011;4715;51.660;7.082;2023-12-20T12:32:43;16.30;;;5.30;;
5085;SDS011;4715;51.660;7.082;2023-12-20T12:35:05;22.10;;;5.17;;
5085;SDS011;4715;51.660;7.082;2023-12-20T12:37:29;12.30;;;5.13;;
5085;SDS011;4715;51.660;7.082;2023-12-20T12:39:54;13.10;;;5.00;;
5085;SDS011;4715;51.660;7.082;2023-12-20T12:42:16;13.00;;;5.00;;
5085;SDS011;4715;51.660;7.082;2023-12-20T12:44:38;14.03;;;5.80;;
5085;SDS011;4715;51.660;7.082;2023-12-20T12:47:02;11.27;;;4.80;;
5085;SDS011;4715;51.660;7.082;2023-12-20T12:49:27;12.70;;;5.97;;
5085;SDS011;4715;51.660;7.082;2023-12-20T12:51:50;8.73;;;5.10;;
5085;SDS011;4715;51.660;7.082;2023-12-20T12:54:12;16.90;;;6.47;;
5085;SDS011;4715;51.660;7.082;2023-12-20T12:56:38;12.87;;;6.57;;
5085;SDS011;4715;51.660;7.082;2023-12-20T12:59:00;13.27;;;6.20;;
5085;SDS011;4715;51.660;7.082;2023-12-20T13:01:22;15.70;;;6.00;;
5085;SDS011;4715;51.660;7.082;2023-12-20T13:03:45;11.53;;;6.00;;
5085;SDS011;4715;51.660;7.082;2023-12-20T13:06:07;15.47;;;5.70;;
5085;SDS011;4715;51.660;7.082;2023-12-20T13:08:29;12.53;;;5.40;;
5085;SDS011;4715;51.660;7.082;2023-12-20T13:10:53;9.20;;;5.17;;
5085;SDS011;4715;51.660;7.082;2023-12-20T13:13:16;10.07;;;5.00;;
5085;SDS011;4715;51.660;7.082;2023-12-20T13:15:38;15.87;;;4.90;;
5085;SDS011;4715;51.660;7.082;2023-12-20T13:18:00;14.10;;;5.50;;
5085;SDS011;4715;51.660;7.082;2023-12-20T13:20:22;11.03;;;6.90;;
5085;SDS011;4715;51.660;7.082;2023-12-20T13:22:44;12.57;;;6.27;;
5085;SDS011;4715;51.660;7.082;2023-12-20T13:25:08;15.67;;;5.20;;
5085;SDS011;4715;51.660;7.082;2023-12-20T13:27:30;14.83;;;6.90;;
5085;SDS011;4715;51.660;7.082;2023-12-20T13:29:54;13.90;;;6.33;;
5085;SDS011;4715;51.660;7.082;2023-12-20T13:32:16;13.40;;;5.37;;
5085;SDS011;4715;51.660;7.082;2023-12-20T13:34:40;12.57;;;5.80;;
5085;SDS011;4715;51.660;7.082;2023-12-20T13:37:02;11.70;;;5.70;;
5085;SDS011;4715;51.660;7.082;2023-12-20T13:39:25;13.07;;;5.77;;
5085;SDS011;4715;51.660;7.082;2023-12-20T13:41:47;11.93;;;6.00;;
5085;SDS011;4715;51.660;7.082;2023-12-20T13:44:09;15.30;;;6.70;;
5085;SDS011;4715;51.660;7.082;2023-12-20T13:46:34;11.67;;;5.00;;
5085;SDS011;4715;51.660;7.082;2023-12-20T13:48:57;15.57;;;5.33;;
5085;SDS011;4715;51.660;7.082;2023-12-20T13:51:21;17.67;;;5.50;;
5085;SDS011;4715;51.660;7.082;2023-12-20T13:53:44;19.10;;;6.60;;
5085;SDS011;4715;51.660;7.082;2023-12-20T13:56:06;10.30;;;5.50;;
5085;SDS011;4715;51.660;7.082;2023-12-20T13:58:28;11.10;;;6.63;;
5085;SDS011;4715;51.660;7.082;2023-12-20T14:00:50;15.27;;;6.53;;
5085;SDS011;4715;51.660;7.082;2023-12-20T14:03:14;9.20;;;4.97;;
5085;SDS011;4715;51.660;7.082;2023-12-20T14:05:36;11.80;;;5.40;;
5085;SDS011;4715;51.660;7.082;2023-12-20T14:07:58;11.97;;;5.70;;
5085;SDS011;4715;51.660;7.082;2023-12-20T14:10:21;13.30;;;6.87;;
5085;SDS011;4715;51.660;7.082;2023-12-20T14:12:43;11.93;;;6.40;;
5085;SDS011;4715;51.660;7.082;2023-12-20T14:15:05;11.57;;;6.07;;
5085;SDS011;4715;51.660;7.082;2023-12-20T14:17:31;5.47;;;4.77;;
5085;SDS011;4715;51.660;7.082;2023-12-20T14:19:54;17.03;;;6.10;;
5085;SDS011;4715;51.660;7.082;2023-12-20T14:22:16;12.97;;;6.00;;
5085;SDS011;4715;51.660;7.082;2023-12-20T14:24:38;11.50;;;6.53;;
5085;SDS011;4715;51.660;7.082;2023-12-20T14:27:00;20.40;;;6.10;;
5085;SDS011;4715;51.660;7.082;2023-12-20T14:29:24;10.43;;;5.83;;
5085;SDS011;4715;51.660;7.082;2023-12-20T14:31:47;16.83;;;5.73;;
5085;SDS011;4715;51.660;7.082;2023-12-20T14:34:10;12.87;;;6.60;;
5085;SDS011;4715;51.660;7.082;2023-12-20T14:36:37;14.63;;;5.90;;
5085;SDS011;4715;51.660;7.082;2023-12-20T14:39:00;7.60;;;5.17;;
5085;SDS011;4715;51.660;7.082;2023-12-20T14:41:22;14.93;;;6.13;;